sensor_id;sensor_type;location;lat;lon;timestamp;pressure;altitude;pressure_sealevel;temperature;humidity
6028;BME280;3042;43.194;27.646;2024-02-23T00:02:17;101644.28;;;11.12;100.00
6028;BME280;3042;43.194;27.646;2024-02-23T00:04:44;101645.56;;;11.04;100.00
6028;BME280;3042;43.194;27.646;2024-02-23T00:07:13;101645.22;;;11.12;100.00
6028;BME280;3042;43.194;27.646;2024-02-23T00:09:40;101568.88;;;10.28;100.00
6028;BME280;3042;43.194;27.646;2024-02-23T00:12:07;101639.59;;;10.60;100.00
6028;BME280;3042;43.194;27.646;2024-02-23T00:14:35;101636.22;;;10.61;100.00
6028;BME280;3042;43.194;27.646;2024-02-23T00:17:03;101640.31;;;10.57;100.00
6028;BME280;3042;43.194;27.646;2024-02-23T00:19:30;101629.09;;;10.42;100.00
6028;BME280;3042;43.194;27.646;2024-02-23T00:21:58;101626.50;;;10.57;100.00
6028;BME280;3042;43.194;27.646;2024-02-23T00:24:27;101621.06;;;10.67;100.00
6028;BME280;3042;43.194;27.646;2024-02-23T00:26:55;101613.50;;;10.70;100.00
6028;BME280;3042;43.194;27.646;2024-02-23T00:29:22;101600.38;;;10.67;100.00
6028;BME280;3042;43.194;27.646;2024-02-23T00:31:49;101610.19;;;10.88;100.00
6028;BME280;3042;43.194;27.646;2024-02-23T00:34:16;101620.19;;;10.82;100.00
6028;BME280;3042;43.194;27.646;2024-02-23T00:36:43;101583.09;;;10.37;100.00
6028;BME280;3042;43.194;27.646;2024-02-23T00:39:11;101622.16;;;10.56;100.00
6028;BME280;3042;43.194;27.646;2024-02-23T00:41:40;101611.28;;;10.47;100.00
6028;BME280;3042;43.194;27.646;2024-02-23T00:44:07;101606.38;;;10.51;100.00
6028;BME280;3042;43.194;27.646;2024-02-23T00:46:34;101596.41;;;10.43;100.00
6028;BME280;3042;43.194;27.646;2024-02-23T00:49:01;101608.31;;;10.55;100.00
6028;BME280;3042;43.194;27.646;2024-02-23T00:51:28;101535.31;;;10.15;100.00
6028;BME280;3042;43.194;27.646;2024-02-23T00:53:56;101602.16;;;10.39;100.00
6028;BME280;3042;43.194;27.646;2024-02-23T00:56:23;101566.63;;;10.34;100.00
6028;BME280;3042;43.194;27.646;2024-02-23T00:58:52;101585.88;;;10.54;100.00
6028;BME280;3042;43.194;27.646;2024-02-23T01:01:19;101588.44;;;10.69;100.00
6028;BME280;3042;43.194;27.646;2024-02-23T01:03:46;101587.91;;;10.60;100.00
6028;BME280;3042;43.194;27.646;2024-02-23T01:06:14;101589.50;;;10.58;100.00
6028;BME280;3042;43.194;27.646;2024-02-23T01:08:42;101590.41;;;10.44;100.00
6028;BME280;3042;43.194;27.646;2024-02-23T01:11:09;101524.63;;;10.09;100.00
6028;BME280;3042;43.194;27.646;2024-02-23T01:13:36;101423.53;;;9.43;100.00
6028;BME280;3042;43.194;27.646;2024-02-23T01:16:05;101581.19;;;10.19;100.00
6028;BME280;3042;43.194;27.646;2024-02-23T01:18:34;101576.81;;;10.18;100.00
6028;BME280;3042;43.194;27.646;2024-02-23T01:21:01;101578.63;;;10.19;100.00
6028;BME280;3042;43.194;27.646;2024-02-23T01:23:28;101576.47;;;10.27;100.00
6028;BME280;3042;43.194;27.646;2024-02-23T01:25:55;101569.41;;;10.38;100.00
6028;BME280;3042;43.194;27.646;2024-02-23T01:28:24;101562.00;;;10.44;100.00
6028;BME280;3042;43.194;27.646;2024-02-23T01:30:51;101565.47;;;10.29;100.00
6028;BME280;3042;43.194;27.646;2024-02-23T01:33:20;101548.91;;;10.41;100.00
6028;BME280;3042;43.194;27.646;2024-02-23T01:35:47;101545.34;;;10.39;100.00
6028;BME280;3042;43.194;27.646;2024-02-23T01:38:14;101538.19;;;10.34;100.00
6028;BME280;3042;43.194;27.646;2024-02-23T01:40:46;101477.66;;;10.00;100.00
6028;BME280;3042;43.194;27.646;2024-02-23T01:43:13;101538.03;;;10.46;100.00
6028;BME280;3042;43.194;27.646;2024-02-23T01:45:41;101396.63;;;9.68;100.00
6028;BME280;3042;43.194;27.646;2024-02-23T01:48:08;101541.75;;;10.22;100.00
6028;BME280;3042;43.194;27.646;2024-02-23T01:50:37;101530.53;;;10.21;100.00
6028;BME280;3042;43.194;27.646;2024-02-23T01:53:05;101537.47;;;10.22;100.00
6028;BME280;3042;43.194;27.646;2024-02-23T01:55:33;101533.81;;;10.19;100.00
6028;BME280;3042;43.194;27.646;2024-02-23T01:58:00;101537.31;;;10.34;100.00
6028;BME280;3042;43.194;27.646;2024-02-23T02:00:28;101543.75;;;10.41;100.00
6028;BME280;3042;43.194;27.646;2024-02-23T02:02:57;101535.81;;;10.38;100.00
6028;BME280;3042;43.194;27.646;2024-02-23T02:05:24;101532.41;;;10.39;100.00
6028;BME280;3042;43.194;27.646;2024-02-23T02:07:53;101470.75;;;9.85;100.00
6028;BME280;3042;43.194;27.646;2024-02-23T02:10:25;101541.75;;;10.22;100.00
6028;BME280;3042;43.194;27.646;2024-02-23T02:12:52;101544.47;;;10.38;100.00
6028;BME280;3042;43.194;27.646;2024-02-23T02:15:19;101398.41;;;9.69;100.00
6028;BME280;3042;43.194;27.646;2024-02-23T02:17:47;101482.69;;;10.13;100.00
6028;BME280;3042;43.194;27.646;2024-02-23T02:20:14;101543.38;;;10.49;100.00
6028;BME280;3042;43.194;27.646;2024-02-23T02:22:44;101533.75;;;10.62;100.00
6028;BME280;3042;43.194;27.646;2024-02-23T02:25:14;101534.28;;;10.71;100.00
6028;BME280;3042;43.194;27.646;2024-02-23T02:27:41;101533.25;;;10.38;100.00
6028;BME280;3042;43.194;27.646;2024-02-23T02:30:11;101525.88;;;10.75;100.00
6028;BME280;3042;43.194;27.646;2024-02-23T02:32:39;101531.00;;;10.90;100.00
6028;BME280;3042;43.194;27.646;2024-02-23T02:35:07;101535.31;;;11.37;100.00
6028;BME280;3042;43.194;27.646;2024-02-23T02:37:34;101523.69;;;11.45;100.00
6028;BME280;3042;43.194;27.646;2024-02-23T02:40:02;101521.09;;;11.29;100.00
6028;BME280;3042;43.194;27.646;2024-02-23T02:42:30;101515.56;;;11.23;100.00
6028;BME280;3042;43.194;27.646;2024-02-23T02:44:58;101521.16;;;11.47;100.00
6028;BME280;3042;43.194;27.646;2024-02-23T02:47:25;101487.94;;;11.54;100.00
6028;BME280;3042;43.194;27.646;2024-02-23T02:49:52;101288.59;;;10.51;100.00
6028;BME280;3042;43.194;27.646;2024-02-23T02:52:19;101341.94;;;10.67;100.00
6028;BME280;3042;43.194;27.646;2024-02-23T02:54:48;101468.63;;;11.82;100.00
6028;BME280;3042;43.194;27.646;2024-02-23T02:57:16;101505.03;;;12.18;100.00
6028;BME280;3042;43.194;27.646;2024-02-23T02:59:44;101512.28;;;12.25;100.00
6028;BME280;3042;43.194;27.646;2024-02-23T03:02:12;101517.19;;;12.02;100.00
6028;BME280;3042;43.194;27.646;2024-02-23T03:04:45;101516.22;;;12.00;100.00
6028;BME280;3042;43.194;27.646;2024-02-23T03:07:13;101514.13;;;11.93;100.00
6028;BME280;3042;43.194;27.646;2024-02-23T03:09:40;101384.28;;;11.02;100.00
6028;BME280;3042;43.194;27.646;2024-02-23T03:12:07;101481.59;;;11.98;100.00
6028;BME280;3042;43.194;27.646;2024-02-23T03:14:35;101519.00;;;12.03;100.00
6028;BME280;3042;43.194;27.646;2024-02-23T03:17:04;101527.41;;;11.83;100.00
6028;BME280;3042;43.194;27.646;2024-02-23T03:19:31;101518.34;;;11.91;100.00
6028;BME280;3042;43.194;27.646;2024-02-23T03:21:59;101522.22;;;11.99;100.00
6028;BME280;3042;43.194;27.646;2024-02-23T03:24:26;101515.44;;;12.01;100.00
6028;BME280;3042;43.194;27.646;2024-02-23T03:26:53;101514.47;;;11.99;100.00
6028;BME280;3042;43.194;27.646;2024-02-23T03:29:21;101473.47;;;12.09;100.00
6028;BME280;3042;43.194;27.646;2024-02-23T03:31:49;101398.47;;;11.59;100.00
6028;BME280;3042;43.194;27.646;2024-02-23T03:34:19;101517.16;;;12.19;100.00
6028;BME280;3042;43.194;27.646;2024-02-23T03:36:46;101512.34;;;12.09;100.00
6028;BME280;3042;43.194;27.646;2024-02-23T03:39:14;101403.13;;;11.32;100.00
6028;BME280;3042;43.194;27.646;2024-02-23T03:41:41;101416.28;;;11.37;100.00
6028;BME280;3042;43.194;27.646;2024-02-23T03:44:08;101496.19;;;11.96;100.00
6028;BME280;3042;43.194;27.646;2024-02-23T03:46:36;101501.66;;;12.02;100.00
6028;BME280;3042;43.194;27.646;2024-02-23T03:49:03;101436.69;;;11.31;100.00
6028;BME280;3042;43.194;27.646;2024-02-23T03:51:31;101501.03;;;11.74;100.00
6028;BME280;3042;43.194;27.646;2024-02-23T03:54:00;101500.06;;;11.39;100.00
6028;BME280;3042;43.194;27.646;2024-02-23T03:56:28;101502.00;;;11.59;100.00
6028;BME280;3042;43.194;27.646;2024-02-23T03:58:56;101503.13;;;11.81;100.00
6028;BME280;3042;43.194;27.646;2024-02-23T04:01:23;101492.13;;;11.85;100.00
6028;BME280;3042;43.194;27.646;2024-02-23T04:03:50;101507.97;;;11.75;100.00
6028;BME280;3042;43.194;27.646;2024-02-23T04:06:17;101505.56;;;11.61;100.00
6028;BME280;3042;43.194;27.646;2024-02-23T04:08:46;101497.78;;;11.78;100.00
6028;BME280;3042;43.194;27.646;2024-02-23T04:11:13;101397.63;;;11.43;100.00
6028;BME280;3042;43.194;27.646;2024-02-23T04:13:40;101452.31;;;11.99;100.00
6028;BME280;3042;43.194;27.646;2024-02-23T04:16:08;101461.78;;;12.17;100.00
6028;BME280;3042;43.194;27.646;2024-02-23T04:18:35;101488.31;;;12.29;100.00
6028;BME280;3042;43.194;27.646;2024-02-23T04:21:02;101485.50;;;12.42;100.00
6028;BME280;3042;43.194;27.646;2024-02-23T04:23:30;101488.00;;;12.23;100.00
6028;BME280;3042;43.194;27.646;2024-02-23T04:25:59;101479.72;;;12.30;100.00
6028;BME280;3042;43.194;27.646;2024-02-23T04:28:26;101344.59;;;11.34;100.00
6028;BME280;3042;43.194;27.646;2024-02-23T04:30:56;101460.44;;;11.40;100.00
6028;BME280;3042;43.194;27.646;2024-02-23T04:33:23;101455.94;;;11.36;100.00
6028;BME280;3042;43.194;27.646;2024-02-23T04:35:51;101489.22;;;11.46;100.00
6028;BME280;3042;43.194;27.646;2024-02-23T04:38:18;101486.16;;;11.53;100.00
6028;BME280;3042;43.194;27.646;2024-02-23T04:40:45;101499.19;;;11.55;100.00
6028;BME280;3042;43.194;27.646;2024-02-23T04:43:14;101495.13;;;11.60;100.00
6028;BME280;3042;43.194;27.646;2024-02-23T04:45:41;101497.63;;;11.42;100.00
6028;BME280;3042;43.194;27.646;2024-02-23T04:48:08;101491.41;;;11.88;100.00
6028;BME280;3042;43.194;27.646;2024-02-23T04:50:35;101484.25;;;12.00;100.00
6028;BME280;3042;43.194;27.646;2024-02-23T04:53:03;101449.56;;;11.80;100.00
6028;BME280;3042;43.194;27.646;2024-02-23T04:55:30;101496.19;;;11.80;100.00
6028;BME280;3042;43.194;27.646;2024-02-23T04:57:57;101493.34;;;11.75;100.00
6028;BME280;3042;43.194;27.646;2024-02-23T05:00:26;101498.31;;;12.05;100.00
6028;BME280;3042;43.194;27.646;2024-02-23T05:02:58;101500.13;;;12.24;100.00
6028;BME280;3042;43.194;27.646;2024-02-23T05:05:28;101501.75;;;12.04;100.00
6028;BME280;3042;43.194;27.646;2024-02-23T05:07:55;101465.34;;;12.19;100.00
6028;BME280;3042;43.194;27.646;2024-02-23T05:10:22;101509.47;;;12.38;100.00
6028;BME280;3042;43.194;27.646;2024-02-23T05:12:49;101496.97;;;12.48;100.00
6028;BME280;3042;43.194;27.646;2024-02-23T05:15:16;101508.53;;;12.72;100.00
6028;BME280;3042;43.194;27.646;2024-02-23T05:17:45;101505.78;;;12.87;100.00
6028;BME280;3042;43.194;27.646;2024-02-23T05:20:13;101515.41;;;12.89;100.00
6028;BME280;3042;43.194;27.646;2024-02-23T05:22:40;101511.84;;;12.87;100.00
6028;BME280;3042;43.194;27.646;2024-02-23T05:25:08;101281.94;;;11.58;100.00
6028;BME280;3042;43.194;27.646;2024-02-23T05:27:35;101386.44;;;12.30;100.00
6028;BME280;3042;43.194;27.646;2024-02-23T05:30:03;101451.41;;;13.08;100.00
6028;BME280;3042;43.194;27.646;2024-02-23T05:32:32;101502.00;;;13.36;100.00
6028;BME280;3042;43.194;27.646;2024-02-23T05:35:00;101510.84;;;13.59;100.00
6028;BME280;3042;43.194;27.646;2024-02-23T05:37:29;101490.38;;;13.66;100.00
6028;BME280;3042;43.194;27.646;2024-02-23T05:39:56;101510.44;;;14.09;100.00
6028;BME280;3042;43.194;27.646;2024-02-23T05:42:25;101411.28;;;13.58;100.00
6028;BME280;3042;43.194;27.646;2024-02-23T05:44:52;101306.13;;;13.08;100.00
6028;BME280;3042;43.194;27.646;2024-02-23T05:47:19;101512.88;;;14.06;100.00
6028;BME280;3042;43.194;27.646;2024-02-23T05:49:47;101433.78;;;13.79;100.00
6028;BME280;3042;43.194;27.646;2024-02-23T05:52:15;101505.50;;;14.57;100.00
6028;BME280;3042;43.194;27.646;2024-02-23T05:54:43;101508.22;;;14.61;100.00
6028;BME280;3042;43.194;27.646;2024-02-23T05:57:10;101509.63;;;14.73;100.00
6028;BME280;3042;43.194;27.646;2024-02-23T05:59:37;101514.44;;;15.08;100.00
6028;BME280;3042;43.194;27.646;2024-02-23T06:02:04;101469.41;;;15.10;100.00
6028;BME280;3042;43.194;27.646;2024-02-23T06:04:31;101249.13;;;14.18;100.00
6028;BME280;3042;43.194;27.646;2024-02-23T06:06:59;101511.25;;;15.63;100.00
6028;BME280;3042;43.194;27.646;2024-02-23T06:09:27;101516.28;;;15.57;100.00
6028;BME280;3042;43.194;27.646;2024-02-23T06:11:55;101441.94;;;15.43;100.00
6028;BME280;3042;43.194;27.646;2024-02-23T06:14:22;101469.09;;;15.25;100.00
6028;BME280;3042;43.194;27.646;2024-02-23T06:16:49;101512.72;;;15.55;100.00
6028;BME280;3042;43.194;27.646;2024-02-23T06:19:17;101466.59;;;15.28;100.00
6028;BME280;3042;43.194;27.646;2024-02-23T06:21:47;101445.22;;;14.90;100.00
6028;BME280;3042;43.194;27.646;2024-02-23T06:24:16;101517.41;;;15.41;100.00
6028;BME280;3042;43.194;27.646;2024-02-23T06:26:44;101515.44;;;15.58;100.00
6028;BME280;3042;43.194;27.646;2024-02-23T06:29:14;101522.66;;;15.43;100.00
6028;BME280;3042;43.194;27.646;2024-02-23T06:31:41;101509.72;;;15.44;100.00
6028;BME280;3042;43.194;27.646;2024-02-23T06:34:14;101510.47;;;15.66;100.00
6028;BME280;3042;43.194;27.646;2024-02-23T06:36:41;101454.75;;;15.36;100.00
6028;BME280;3042;43.194;27.646;2024-02-23T06:39:09;101513.13;;;15.90;100.00
6028;BME280;3042;43.194;27.646;2024-02-23T06:41:36;101499.16;;;15.88;100.00
6028;BME280;3042;43.194;27.646;2024-02-23T06:44:06;101460.41;;;15.49;100.00
6028;BME280;3042;43.194;27.646;2024-02-23T06:46:33;101511.16;;;15.60;100.00
6028;BME280;3042;43.194;27.646;2024-02-23T06:49:00;101511.84;;;15.78;100.00
6028;BME280;3042;43.194;27.646;2024-02-23T06:51:27;101502.56;;;15.87;100.00
6028;BME280;3042;43.194;27.646;2024-02-23T06:53:55;101411.16;;;15.56;100.00
6028;BME280;3042;43.194;27.646;2024-02-23T06:56:22;101488.75;;;15.89;100.00
6028;BME280;3042;43.194;27.646;2024-02-23T06:58:49;101491.28;;;16.12;100.00
6028;BME280;3042;43.194;27.646;2024-02-23T07:01:20;101502.41;;;16.06;100.00
6028;BME280;3042;43.194;27.646;2024-02-23T07:03:47;101499.25;;;16.16;100.00
6028;BME280;3042;43.194;27.646;2024-02-23T07:06:16;101502.69;;;16.15;100.00
6028;BME280;3042;43.194;27.646;2024-02-23T07:08:44;101434.41;;;16.00;100.00
6028;BME280;3042;43.194;27.646;2024-02-23T07:11:11;101499.28;;;16.43;100.00
6028;BME280;3042;43.194;27.646;2024-02-23T07:13:38;101421.25;;;16.22;100.00
6028;BME280;3042;43.194;27.646;2024-02-23T07:16:06;101498.34;;;16.68;100.00
6028;BME280;3042;43.194;27.646;2024-02-23T07:18:35;101461.94;;;16.73;100.00
6028;BME280;3042;43.194;27.646;2024-02-23T07:21:03;101457.44;;;16.40;100.00
6028;BME280;3042;43.194;27.646;2024-02-23T07:23:31;101486.53;;;17.08;100.00
6028;BME280;3042;43.194;27.646;2024-02-23T07:25:58;101490.00;;;17.07;100.00
6028;BME280;3042;43.194;27.646;2024-02-23T07:28:25;101492.84;;;17.15;100.00
6028;BME280;3042;43.194;27.646;2024-02-23T07:30:52;101258.84;;;15.71;100.00
6028;BME280;3042;43.194;27.646;2024-02-23T07:33:20;101414.69;;;16.64;100.00
6028;BME280;3042;43.194;27.646;2024-02-23T07:35:48;101483.53;;;17.25;100.00
6028;BME280;3042;43.194;27.646;2024-02-23T07:38:15;101482.03;;;17.33;100.00
6028;BME280;3042;43.194;27.646;2024-02-23T07:40:44;101473.34;;;17.34;100.00
6028;BME280;3042;43.194;27.646;2024-02-23T07:43:12;101482.38;;;17.45;100.00
6028;BME280;3042;43.194;27.646;2024-02-23T07:45:39;101480.84;;;17.84;100.00
6028;BME280;3042;43.194;27.646;2024-02-23T07:48:07;101479.50;;;17.98;100.00
6028;BME280;3042;43.194;27.646;2024-02-23T07:50:35;101485.06;;;18.12;100.00
6028;BME280;3042;43.194;27.646;2024-02-23T07:53:05;101474.13;;;18.28;100.00
6028;BME280;3042;43.194;27.646;2024-02-23T07:55:32;101477.41;;;18.56;100.00
6028;BME280;3042;43.194;27.646;2024-02-23T07:57:59;101478.94;;;18.46;100.00
6028;BME280;3042;43.194;27.646;2024-02-23T08:00:27;101477.00;;;18.39;100.00
6028;BME280;3042;43.194;27.646;2024-02-23T08:02:55;101471.56;;;18.66;100.00
6028;BME280;3042;43.194;27.646;2024-02-23T08:05:24;101451.75;;;18.77;100.00
6028;BME280;3042;43.194;27.646;2024-02-23T08:07:51;101420.50;;;18.85;100.00
6028;BME280;3042;43.194;27.646;2024-02-23T08:10:20;101462.75;;;19.45;100.00
6028;BME280;3042;43.194;27.646;2024-02-23T08:12:47;101463.44;;;19.36;100.00
6028;BME280;3042;43.194;27.646;2024-02-23T08:15:15;101365.19;;;18.71;100.00
6028;BME280;3042;43.194;27.646;2024-02-23T08:17:42;101457.38;;;19.37;100.00
6028;BME280;3042;43.194;27.646;2024-02-23T08:20:10;101347.19;;;18.85;100.00
6028;BME280;3042;43.194;27.646;2024-02-23T08:22:37;101380.88;;;19.11;100.00
6028;BME280;3042;43.194;27.646;2024-02-23T08:25:05;101461.44;;;19.67;100.00
6028;BME280;3042;43.194;27.646;2024-02-23T08:27:34;101465.31;;;19.87;100.00
6028;BME280;3042;43.194;27.646;2024-02-23T08:30:02;101449.72;;;19.93;100.00
6028;BME280;3042;43.194;27.646;2024-02-23T08:32:29;101455.00;;;19.95;100.00
6028;BME280;3042;43.194;27.646;2024-02-23T08:34:56;101383.84;;;19.78;100.00
6028;BME280;3042;43.194;27.646;2024-02-23T08:37:25;101409.97;;;20.23;100.00
6028;BME280;3042;43.194;27.646;2024-02-23T08:39:52;101467.28;;;19.97;100.00
6028;BME280;3042;43.194;27.646;2024-02-23T08:42:20;101464.78;;;20.05;100.00
6028;BME280;3042;43.194;27.646;2024-02-23T08:44:48;101469.81;;;19.93;100.00
6028;BME280;3042;43.194;27.646;2024-02-23T08:47:15;101473.31;;;19.93;100.00
6028;BME280;3042;43.194;27.646;2024-02-23T08:49:43;101431.88;;;19.74;100.00
6028;BME280;3042;43.194;27.646;2024-02-23T08:52:11;101465.81;;;20.15;100.00
6028;BME280;3042;43.194;27.646;2024-02-23T08:54:38;101468.97;;;19.95;100.00
6028;BME280;3042;43.194;27.646;2024-02-23T08:57:06;101324.88;;;19.54;100.00
6028;BME280;3042;43.194;27.646;2024-02-23T08:59:33;101460.78;;;20.29;100.00
6028;BME280;3042;43.194;27.646;2024-02-23T09:02:02;101452.22;;;20.40;100.00
6028;BME280;3042;43.194;27.646;2024-02-23T09:04:29;101452.50;;;20.57;100.00
6028;BME280;3042;43.194;27.646;2024-02-23T09:06:57;101347.47;;;19.98;100.00
6028;BME280;3042;43.194;27.646;2024-02-23T09:09:24;101360.63;;;19.99;100.00
6028;BME280;3042;43.194;27.646;2024-02-23T09:11:52;101462.81;;;20.47;100.00
6028;BME280;3042;43.194;27.646;2024-02-23T09:14:19;101459.50;;;20.57;100.00
6028;BME280;3042;43.194;27.646;2024-02-23T09:16:47;101459.94;;;20.87;100.00
6028;BME280;3042;43.194;27.646;2024-02-23T09:19:17;101456.38;;;20.82;100.00
6028;BME280;3042;43.194;27.646;2024-02-23T09:21:46;101446.25;;;21.13;100.00
6028;BME280;3042;43.194;27.646;2024-02-23T09:24:13;101451.34;;;20.99;100.00
6028;BME280;3042;43.194;27.646;2024-02-23T09:26:40;101442.81;;;21.19;100.00
6028;BME280;3042;43.194;27.646;2024-02-23T09:29:07;101354.56;;;20.63;100.00
6028;BME280;3042;43.194;27.646;2024-02-23T09:31:35;101420.47;;;21.55;100.00
6028;BME280;3042;43.194;27.646;2024-02-23T09:34:02;101250.72;;;20.21;100.00
6028;BME280;3042;43.194;27.646;2024-02-23T09:36:31;101430.50;;;21.16;100.00
6028;BME280;3042;43.194;27.646;2024-02-23T09:38:58;101427.88;;;21.15;100.00
6028;BME280;3042;43.194;27.646;2024-02-23T09:41:27;101351.50;;;20.34;100.00
6028;BME280;3042;43.194;27.646;2024-02-23T09:43:55;101342.47;;;20.77;100.00
6028;BME280;3042;43.194;27.646;2024-02-23T09:46:26;101317.66;;;20.54;100.00
6028;BME280;3042;43.194;27.646;2024-02-23T09:48:55;101377.47;;;21.51;100.00
6028;BME280;3042;43.194;27.646;2024-02-23T09:51:23;101350.22;;;21.43;100.00
6028;BME280;3042;43.194;27.646;2024-02-23T09:53:52;101280.72;;;21.21;100.00
6028;BME280;3042;43.194;27.646;2024-02-23T09:56:20;101392.84;;;22.04;100.00
6028;BME280;3042;43.194;27.646;2024-02-23T09:58:49;101376.31;;;22.24;100.00
6028;BME280;3042;43.194;27.646;2024-02-23T10:01:25;101394.81;;;22.30;98.48
6028;BME280;3042;43.194;27.646;2024-02-23T10:03:54;101398.34;;;22.32;98.16
6028;BME280;3042;43.194;27.646;2024-02-23T10:06:23;101394.00;;;22.43;95.01
6028;BME280;3042;43.194;27.646;2024-02-23T10:08:52;101396.53;;;22.28;95.62
6028;BME280;3042;43.194;27.646;2024-02-23T10:11:20;101236.31;;;21.47;96.00
6028;BME280;3042;43.194;27.646;2024-02-23T10:13:48;101332.25;;;22.00;97.61
6028;BME280;3042;43.194;27.646;2024-02-23T10:16:17;101292.78;;;22.03;98.42
6028;BME280;3042;43.194;27.646;2024-02-23T10:18:46;101377.38;;;22.53;99.05
6028;BME280;3042;43.194;27.646;2024-02-23T10:21:14;101299.13;;;22.32;98.69
6028;BME280;3042;43.194;27.646;2024-02-23T10:23:41;101371.28;;;22.68;94.92
6028;BME280;3042;43.194;27.646;2024-02-23T10:26:10;101380.06;;;22.66;92.78
6028;BME280;3042;43.194;27.646;2024-02-23T10:28:38;101275.50;;;22.49;93.14
6028;BME280;3042;43.194;27.646;2024-02-23T10:31:05;101367.88;;;22.86;92.92
6028;BME280;3042;43.194;27.646;2024-02-23T10:33:34;101242.78;;;22.01;92.40
6028;BME280;3042;43.194;27.646;2024-02-23T10:36:05;101367.00;;;22.93;90.29
6028;BME280;3042;43.194;27.646;2024-02-23T10:38:35;101360.84;;;22.81;91.24
6028;BME280;3042;43.194;27.646;2024-02-23T10:41:05;101370.41;;;22.66;92.78
6028;BME280;3042;43.194;27.646;2024-02-23T10:43:41;101275.47;;;22.40;92.87
6028;BME280;3042;43.194;27.646;2024-02-23T10:46:11;101349.38;;;22.77;90.79
6028;BME280;3042;43.194;27.646;2024-02-23T10:48:43;101354.78;;;23.02;91.02
6028;BME280;3042;43.194;27.646;2024-02-23T10:51:13;101282.50;;;22.44;91.25
6028;BME280;3042;43.194;27.646;2024-02-23T10:53:41;101338.81;;;22.68;88.63
6028;BME280;3042;43.194;27.646;2024-02-23T10:56:10;101352.16;;;23.06;87.57
6028;BME280;3042;43.194;27.646;2024-02-23T10:58:39;101346.03;;;23.24;88.93
6028;BME280;3042;43.194;27.646;2024-02-23T11:01:07;101357.34;;;22.95;87.09
6028;BME280;3042;43.194;27.646;2024-02-23T11:03:36;101124.34;;;21.95;86.15
6028;BME280;3042;43.194;27.646;2024-02-23T11:06:06;101339.91;;;23.41;84.08
6028;BME280;3042;43.194;27.646;2024-02-23T11:08:33;101337.25;;;23.41;85.23
6028;BME280;3042;43.194;27.646;2024-02-23T11:11:07;101239.56;;;22.73;87.27
6028;BME280;3042;43.194;27.646;2024-02-23T11:13:35;101339.91;;;23.25;82.93
6028;BME280;3042;43.194;27.646;2024-02-23T11:16:04;101194.75;;;22.54;82.77
6028;BME280;3042;43.194;27.646;2024-02-23T11:18:34;101334.63;;;23.36;82.05
6028;BME280;3042;43.194;27.646;2024-02-23T11:21:03;101266.00;;;23.01;81.00
6028;BME280;3042;43.194;27.646;2024-02-23T11:23:40;101258.03;;;22.79;80.67
6028;BME280;3042;43.194;27.646;2024-02-23T11:26:10;101315.31;;;23.51;80.80
6028;BME280;3042;43.194;27.646;2024-02-23T11:28:46;101298.59;;;23.61;77.38
6028;BME280;3042;43.194;27.646;2024-02-23T11:31:16;101302.06;;;23.97;77.44
6028;BME280;3042;43.194;27.646;2024-02-23T11:33:49;101299.44;;;24.08;76.91
6028;BME280;3042;43.194;27.646;2024-02-23T11:36:23;101128.91;;;22.87;76.17
6028;BME280;3042;43.194;27.646;2024-02-23T11:38:52;101238.78;;;23.48;76.12
6028;BME280;3042;43.194;27.646;2024-02-23T11:41:21;101294.19;;;23.78;76.94
6028;BME280;3042;43.194;27.646;2024-02-23T11:43:50;101226.47;;;23.41;77.10
6028;BME280;3042;43.194;27.646;2024-02-23T11:46:19;101303.84;;;23.64;79.46
6028;BME280;3042;43.194;27.646;2024-02-23T11:48:46;101310.03;;;23.60;79.40
6028;BME280;3042;43.194;27.646;2024-02-23T11:51:19;101295.06;;;23.65;79.46
6028;BME280;3042;43.194;27.646;2024-02-23T11:53:46;101308.25;;;23.59;80.09
6028;BME280;3042;43.194;27.646;2024-02-23T11:56:14;101258.13;;;23.19;80.88
6028;BME280;3042;43.194;27.646;2024-02-23T11:58:42;101218.44;;;22.47;78.32
6028;BME280;3042;43.194;27.646;2024-02-23T12:01:09;101296.81;;;23.57;78.72
6028;BME280;3042;43.194;27.646;2024-02-23T12:03:38;101317.94;;;23.45;77.58
6028;BME280;3042;43.194;27.646;2024-02-23T12:06:07;101302.06;;;23.65;75.25
6028;BME280;3042;43.194;27.646;2024-02-23T12:08:35;101312.66;;;23.57;75.43
6028;BME280;3042;43.194;27.646;2024-02-23T12:11:05;101246.69;;;23.54;75.51
6028;BME280;3042;43.194;27.646;2024-02-23T12:13:34;101303.84;;;23.52;76.21
6028;BME280;3042;43.194;27.646;2024-02-23T12:16:01;101242.28;;;23.87;77.06
6028;BME280;3042;43.194;27.646;2024-02-23T12:18:29;101294.19;;;23.85;77.80
6028;BME280;3042;43.194;27.646;2024-02-23T12:21:01;101159.72;;;23.06;77.98
6028;BME280;3042;43.194;27.646;2024-02-23T12:23:38;101296.75;;;24.18;77.60
6028;BME280;3042;43.194;27.646;2024-02-23T12:26:06;101295.00;;;24.14;74.95
6028;BME280;3042;43.194;27.646;2024-02-23T12:28:34;101076.22;;;22.79;75.09
6028;BME280;3042;43.194;27.646;2024-02-23T12:31:03;101300.34;;;23.77;75.40
6028;BME280;3042;43.194;27.646;2024-02-23T12:33:33;101273.94;;;23.87;76.35
6028;BME280;3042;43.194;27.646;2024-02-23T12:36:04;101253.66;;;24.10;75.92
6028;BME280;3042;43.194;27.646;2024-02-23T12:38:31;101272.94;;;24.29;75.23
6028;BME280;3042;43.194;27.646;2024-02-23T12:41:00;101288.81;;;24.20;74.42
6028;BME280;3042;43.194;27.646;2024-02-23T12:43:28;101295.09;;;23.74;73.58
6028;BME280;3042;43.194;27.646;2024-02-23T12:45:56;101291.47;;;24.17;72.30
6028;BME280;3042;43.194;27.646;2024-02-23T12:48:24;101225.53;;;23.69;71.75
6028;BME280;3042;43.194;27.646;2024-02-23T12:50:52;101284.41;;;24.23;73.07
6028;BME280;3042;43.194;27.646;2024-02-23T12:53:36;101286.25;;;23.94;72.99
6028;BME280;3042;43.194;27.646;2024-02-23T12:56:04;101279.19;;;24.08;74.06
6028;BME280;3042;43.194;27.646;2024-02-23T12:58:33;101277.38;;;24.26;72.43